sensor_id;sensor_type;location;lat;lon;timestamp;P1;durP1;ratioP1;P2;durP2;ratioP2
20928;SDS011;21895;47.072;15.132;2023-04-24T00:01:31;11.17;;;4.53;;
20928;SDS011;21895;47.072;15.132;2023-04-24T00:03:59;6.63;;;4.33;;
20928;SDS011;21895;47.072;15.132;2023-04-24T00:06:27;15.53;;;4.50;;
20928;SDS011;21895;47.072;15.132;2023-04-24T00:08:59;25.97;;;4.50;;
20928;SDS011;21895;47.072;15.132;2023-04-24T00:11:26;35.43;;;4.30;;
20928;SDS011;21895;47.072;15.132;2023-04-24T00:13:53;15.83;;;4.20;;
20928;SDS011;21895;47.072;15.132;2023-04-24T00:16:20;38.23;;;4.60;;
20928;SDS011;21895;47.072;15.132;2023-04-24T00:18:47;33.40;;;4.77;;
20928;SDS011;21895;47.072;15.132;2023-04-24T00:21:14;65.07;;;5.03;;
20928;SDS011;21895;47.072;15.132;2023-04-24T00:23:44;75.70;;;5.40;;
20928;SDS011;21895;47.072;15.132;2023-04-24T00:26:10;87.00;;;5.13;;
20928;SDS011;21895;47.072;15.132;2023-04-24T00:28:37;21.03;;;4.57;;
20928;SDS011;21895;47.072;15.132;2023-04-24T00:31:03;70.37;;;5.07;;
20928;SDS011;21895;47.072;15.132;2023-04-24T00:33:30;20.23;;;4.20;;
20928;SDS011;21895;47.072;15.132;2023-04-24T00:35:57;7.23;;;4.67;;
20928;SDS011;21895;47.072;15.132;2023-04-24T00:38:23;7.27;;;4.20;;
20928;SDS011;21895;47.072;15.132;2023-04-24T00:40:50;54.40;;;4.83;;
20928;SDS011;21895;47.072;15.132;2023-04-24T00:43:16;10.77;;;4.40;;
20928;SDS011;21895;47.072;15.132;2023-04-24T00:45:43;64.03;;;6.57;;
20928;SDS011;21895;47.072;15.132;2023-04-24T00:48:10;151.63;;;9.20;;
20928;SDS011;21895;47.072;15.132;2023-04-24T00:50:38;18.77;;;4.93;;
20928;SDS011;21895;47.072;15.132;2023-04-24T00:53:04;33.50;;;4.73;;
20928;SDS011;21895;47.072;15.132;2023-04-24T00:55:31;46.47;;;4.40;;
20928;SDS011;21895;47.072;15.132;2023-04-24T00:57:58;55.53;;;4.27;;
20928;SDS011;21895;47.072;15.132;2023-04-24T01:00:25;21.73;;;4.53;;
20928;SDS011;21895;47.072;15.132;2023-04-24T01:02:52;19.40;;;4.53;;
20928;SDS011;21895;47.072;15.132;2023-04-24T01:05:19;91.47;;;5.30;;
20928;SDS011;21895;47.072;15.132;2023-04-24T01:07:45;47.53;;;5.10;;
20928;SDS011;21895;47.072;15.132;2023-04-24T01:10:14;116.63;;;5.53;;
20928;SDS011;21895;47.072;15.132;2023-04-24T01:12:45;66.47;;;5.03;;
20928;SDS011;21895;47.072;15.132;2023-04-24T01:15:12;33.27;;;4.47;;
20928;SDS011;21895;47.072;15.132;2023-04-24T01:17:40;58.83;;;4.73;;
20928;SDS011;21895;47.072;15.132;2023-04-24T01:20:06;18.33;;;4.30;;
20928;SDS011;21895;47.072;15.132;2023-04-24T01:22:34;7.27;;;4.27;;
20928;SDS011;21895;47.072;15.132;2023-04-24T01:25:01;29.03;;;5.17;;
20928;SDS011;21895;47.072;15.132;2023-04-24T01:27:28;22.30;;;5.47;;
20928;SDS011;21895;47.072;15.132;2023-04-24T01:29:55;10.57;;;5.33;;
20928;SDS011;21895;47.072;15.132;2023-04-24T01:32:22;9.30;;;5.03;;
20928;SDS011;21895;47.072;15.132;2023-04-24T01:34:49;42.80;;;5.70;;
20928;SDS011;21895;47.072;15.132;2023-04-24T01:37:17;77.83;;;5.30;;
20928;SDS011;21895;47.072;15.132;2023-04-24T01:39:43;38.27;;;4.90;;
20928;SDS011;21895;47.072;15.132;2023-04-24T01:42:10;17.60;;;3.93;;
20928;SDS011;21895;47.072;15.132;2023-04-24T01:44:38;25.50;;;4.00;;
20928;SDS011;21895;47.072;15.132;2023-04-24T01:47:06;7.20;;;4.33;;
20928;SDS011;21895;47.072;15.132;2023-04-24T01:49:33;31.10;;;4.63;;
20928;SDS011;21895;47.072;15.132;2023-04-24T01:52:00;115.70;;;5.10;;
20928;SDS011;21895;47.072;15.132;2023-04-24T01:54:26;99.43;;;5.50;;
20928;SDS011;21895;47.072;15.132;2023-04-24T01:56:53;87.37;;;5.10;;
20928;SDS011;21895;47.072;15.132;2023-04-24T01:59:19;76.77;;;4.80;;
20928;SDS011;21895;47.072;15.132;2023-04-24T02:01:48;66.87;;;4.97;;
20928;SDS011;21895;47.072;15.132;2023-04-24T02:04:15;86.43;;;4.87;;
20928;SDS011;21895;47.072;15.132;2023-04-24T02:06:42;48.13;;;4.67;;
20928;SDS011;21895;47.072;15.132;2023-04-24T02:09:08;79.20;;;5.13;;
20928;SDS011;21895;47.072;15.132;2023-04-24T02:11:36;62.57;;;4.93;;
20928;SDS011;21895;47.072;15.132;2023-04-24T02:14:02;90.50;;;4.97;;
20928;SDS011;21895;47.072;15.132;2023-04-24T02:16:29;44.67;;;4.63;;
20928;SDS011;21895;47.072;15.132;2023-04-24T02:18:57;12.00;;;4.50;;
20928;SDS011;21895;47.072;15.132;2023-04-24T02:21:24;16.90;;;3.87;;
20928;SDS011;21895;47.072;15.132;2023-04-24T02:23:50;8.47;;;4.23;;
20928;SDS011;21895;47.072;15.132;2023-04-24T02:26:17;15.13;;;5.17;;
20928;SDS011;21895;47.072;15.132;2023-04-24T02:28:44;8.40;;;5.40;;
20928;SDS011;21895;47.072;15.132;2023-04-24T02:31:10;9.43;;;5.50;;
20928;SDS011;21895;47.072;15.132;2023-04-24T02:33:37;8.33;;;5.47;;
20928;SDS011;21895;47.072;15.132;2023-04-24T02:36:03;22.07;;;5.47;;
20928;SDS011;21895;47.072;15.132;2023-04-24T02:38:30;37.10;;;4.80;;
20928;SDS011;21895;47.072;15.132;2023-04-24T02:40:56;9.80;;;6.37;;
20928;SDS011;21895;47.072;15.132;2023-04-24T02:43:23;7.07;;;4.80;;
20928;SDS011;21895;47.072;15.132;2023-04-24T02:45:49;18.50;;;5.00;;
20928;SDS011;21895;47.072;15.132;2023-04-24T02:48:16;13.80;;;6.13;;
20928;SDS011;21895;47.072;15.132;2023-04-24T02:50:42;12.57;;;6.60;;
20928;SDS011;21895;47.072;15.132;2023-04-24T02:53:09;10.63;;;6.60;;
20928;SDS011;21895;47.072;15.132;2023-04-24T02:55:36;10.33;;;6.57;;
20928;SDS011;21895;47.072;15.132;2023-04-24T02:58:02;13.70;;;6.40;;
20928;SDS011;21895;47.072;15.132;2023-04-24T03:00:29;10.10;;;6.23;;
20928;SDS011;21895;47.072;15.132;2023-04-24T03:02:55;17.80;;;5.70;;
20928;SDS011;21895;47.072;15.132;2023-04-24T03:05:22;11.70;;;5.80;;
20928;SDS011;21895;47.072;15.132;2023-04-24T03:07:49;9.30;;;4.70;;
20928;SDS011;21895;47.072;15.132;2023-04-24T03:10:18;8.30;;;5.27;;
20928;SDS011;21895;47.072;15.132;2023-04-24T03:12:45;8.73;;;5.77;;
20928;SDS011;21895;47.072;15.132;2023-04-24T03:15:11;9.53;;;5.80;;
20928;SDS011;21895;47.072;15.132;2023-04-24T03:17:37;9.10;;;6.20;;
20928;SDS011;21895;47.072;15.132;2023-04-24T03:20:04;11.33;;;4.93;;
20928;SDS011;21895;47.072;15.132;2023-04-24T03:22:33;16.43;;;5.50;;
20928;SDS011;21895;47.072;15.132;2023-04-24T03:25:00;9.03;;;5.27;;
20928;SDS011;21895;47.072;15.132;2023-04-24T03:27:27;9.87;;;4.90;;
20928;SDS011;21895;47.072;15.132;2023-04-24T03:29:54;9.60;;;4.70;;
20928;SDS011;21895;47.072;15.132;2023-04-24T03:32:23;6.73;;;4.90;;
20928;SDS011;21895;47.072;15.132;2023-04-24T03:34:49;8.57;;;5.60;;
20928;SDS011;21895;47.072;15.132;2023-04-24T03:37:16;8.00;;;5.30;;
20928;SDS011;21895;47.072;15.132;2023-04-24T03:39:43;10.90;;;6.93;;
20928;SDS011;21895;47.072;15.132;2023-04-24T03:42:09;10.73;;;6.90;;
20928;SDS011;21895;47.072;15.132;2023-04-24T03:44:36;15.40;;;7.10;;
20928;SDS011;21895;47.072;15.132;2023-04-24T03:47:02;21.40;;;7.37;;
20928;SDS011;21895;47.072;15.132;2023-04-24T03:49:29;19.27;;;7.10;;
20928;SDS011;21895;47.072;15.132;2023-04-24T03:51:55;14.40;;;7.27;;
20928;SDS011;21895;47.072;15.132;2023-04-24T03:54:22;12.97;;;6.37;;
20928;SDS011;21895;47.072;15.132;2023-04-24T03:56:48;9.57;;;6.43;;
20928;SDS011;21895;47.072;15.132;2023-04-24T03:59:15;10.37;;;6.83;;
20928;SDS011;21895;47.072;15.132;2023-04-24T04:01:41;11.13;;;6.77;;
20928;SDS011;21895;47.072;15.132;2023-04-24T04:04:09;13.07;;;6.90;;
20928;SDS011;21895;47.072;15.132;2023-04-24T04:06:36;12.53;;;7.20;;
20928;SDS011;21895;47.072;15.132;2023-04-24T04:09:02;14.03;;;7.70;;
20928;SDS011;21895;47.072;15.132;2023-04-24T04:11:29;12.20;;;6.47;;
20928;SDS011;21895;47.072;15.132;2023-04-24T04:13:57;12.97;;;7.83;;
20928;SDS011;21895;47.072;15.132;2023-04-24T04:16:23;11.33;;;6.93;;
20928;SDS011;21895;47.072;15.132;2023-04-24T04:18:50;15.03;;;7.20;;
20928;SDS011;21895;47.072;15.132;2023-04-24T04:21:16;20.33;;;7.43;;
20928;SDS011;21895;47.072;15.132;2023-04-24T04:23:43;11.90;;;7.27;;
20928;SDS011;21895;47.072;15.132;2023-04-24T04:26:10;17.17;;;9.30;;
20928;SDS011;21895;47.072;15.132;2023-04-24T04:28:38;14.90;;;8.67;;
20928;SDS011;21895;47.072;15.132;2023-04-24T04:31:05;13.43;;;7.10;;
20928;SDS011;21895;47.072;15.132;2023-04-24T04:33:33;18.87;;;7.07;;
20928;SDS011;21895;47.072;15.132;2023-04-24T04:36:01;15.80;;;7.53;;
20928;SDS011;21895;47.072;15.132;2023-04-24T04:38:29;17.57;;;8.30;;
20928;SDS011;21895;47.072;15.132;2023-04-24T04:40:55;22.13;;;7.87;;
20928;SDS011;21895;47.072;15.132;2023-04-24T04:43:23;15.97;;;8.33;;
20928;SDS011;21895;47.072;15.132;2023-04-24T04:45:50;13.60;;;8.43;;
20928;SDS011;21895;47.072;15.132;2023-04-24T04:48:17;17.13;;;8.63;;
20928;SDS011;21895;47.072;15.132;2023-04-24T04:50:44;20.13;;;7.67;;
20928;SDS011;21895;47.072;15.132;2023-04-24T04:53:10;16.63;;;8.20;;
20928;SDS011;21895;47.072;15.132;2023-04-24T04:55:37;14.00;;;7.80;;
20928;SDS011;21895;47.072;15.132;2023-04-24T04:58:04;18.07;;;7.60;;
20928;SDS011;21895;47.072;15.132;2023-04-24T05:00:31;12.33;;;7.20;;
20928;SDS011;21895;47.072;15.132;2023-04-24T05:03:01;19.70;;;7.40;;
20928;SDS011;21895;47.072;15.132;2023-04-24T05:05:44;19.27;;;6.83;;
20928;SDS011;21895;47.072;15.132;2023-04-24T05:08:11;12.70;;;6.73;;
20928;SDS011;21895;47.072;15.132;2023-04-24T05:10:52;15.47;;;6.87;;
20928;SDS011;21895;47.072;15.132;2023-04-24T05:13:20;15.47;;;6.57;;
20928;SDS011;21895;47.072;15.132;2023-04-24T05:16:01;11.70;;;6.63;;
20928;SDS011;21895;47.072;15.132;2023-04-24T05:18:27;16.17;;;7.70;;
20928;SDS011;21895;47.072;15.132;2023-04-24T05:20:54;15.73;;;7.40;;
20928;SDS011;21895;47.072;15.132;2023-04-24T05:23:21;8.90;;;6.27;;
20928;SDS011;21895;47.072;15.132;2023-04-24T05:25:47;17.23;;;6.50;;
20928;SDS011;21895;47.072;15.132;2023-04-24T05:28:14;16.67;;;6.50;;
20928;SDS011;21895;47.072;15.132;2023-04-24T05:30:40;10.43;;;6.03;;
20928;SDS011;21895;47.072;15.132;2023-04-24T05:33:07;11.77;;;6.40;;
20928;SDS011;21895;47.072;15.132;2023-04-24T05:35:34;13.27;;;6.53;;
20928;SDS011;21895;47.072;15.132;2023-04-24T05:38:01;18.37;;;7.17;;
20928;SDS011;21895;47.072;15.132;2023-04-24T05:40:27;25.20;;;8.30;;
20928;SDS011;21895;47.072;15.132;2023-04-24T05:42:54;15.80;;;7.70;;
20928;SDS011;21895;47.072;15.132;2023-04-24T05:45:20;17.40;;;8.73;;
20928;SDS011;21895;47.072;15.132;2023-04-24T05:47:47;15.47;;;8.13;;
20928;SDS011;21895;47.072;15.132;2023-04-24T05:50:13;12.57;;;6.97;;
20928;SDS011;21895;47.072;15.132;2023-04-24T05:52:40;12.50;;;7.27;;
20928;SDS011;21895;47.072;15.132;2023-04-24T05:55:07;19.07;;;7.50;;
20928;SDS011;21895;47.072;15.132;2023-04-24T05:57:34;18.87;;;7.17;;
20928;SDS011;21895;47.072;15.132;2023-04-24T06:00:00;19.17;;;7.23;;
20928;SDS011;21895;47.072;15.132;2023-04-24T06:02:27;8.77;;;6.37;;
20928;SDS011;21895;47.072;15.132;2023-04-24T06:04:58;10.37;;;6.43;;
20928;SDS011;21895;47.072;15.132;2023-04-24T06:07:25;15.43;;;6.50;;
20928;SDS011;21895;47.072;15.132;2023-04-24T06:09:52;20.13;;;7.37;;
20928;SDS011;21895;47.072;15.132;2023-04-24T06:12:18;19.47;;;8.53;;
20928;SDS011;21895;47.072;15.132;2023-04-24T06:14:45;13.33;;;7.30;;
20928;SDS011;21895;47.072;15.132;2023-04-24T06:17:12;14.67;;;6.20;;
20928;SDS011;21895;47.072;15.132;2023-04-24T06:19:39;11.03;;;6.30;;
20928;SDS011;21895;47.072;15.132;2023-04-24T06:22:06;13.07;;;5.93;;
20928;SDS011;21895;47.072;15.132;2023-04-24T06:24:36;13.53;;;6.33;;
20928;SDS011;21895;47.072;15.132;2023-04-24T06:27:02;13.53;;;6.83;;
20928;SDS011;21895;47.072;15.132;2023-04-24T06:29:29;15.70;;;7.43;;
20928;SDS011;21895;47.072;15.132;2023-04-24T06:31:55;22.17;;;8.20;;
20928;SDS011;21895;47.072;15.132;2023-04-24T06:34:22;24.30;;;10.57;;
20928;SDS011;21895;47.072;15.132;2023-04-24T06:36:48;28.20;;;11.23;;
20928;SDS011;21895;47.072;15.132;2023-04-24T06:39:15;18.77;;;10.13;;
20928;SDS011;21895;47.072;15.132;2023-04-24T06:41:41;25.10;;;9.30;;
20928;SDS011;21895;47.072;15.132;2023-04-24T06:44:08;20.03;;;8.97;;
20928;SDS011;21895;47.072;15.132;2023-04-24T06:46:34;18.67;;;9.23;;
20928;SDS011;21895;47.072;15.132;2023-04-24T06:49:01;23.47;;;11.90;;
20928;SDS011;21895;47.072;15.132;2023-04-24T06:51:27;29.50;;;13.17;;
20928;SDS011;21895;47.072;15.132;2023-04-24T06:53:54;20.13;;;10.57;;
20928;SDS011;21895;47.072;15.132;2023-04-24T06:56:23;18.50;;;9.83;;
20928;SDS011;21895;47.072;15.132;2023-04-24T06:58:51;22.97;;;10.53;;
20928;SDS011;21895;47.072;15.132;2023-04-24T07:01:17;28.53;;;12.10;;
20928;SDS011;21895;47.072;15.132;2023-04-24T07:03:44;21.93;;;10.50;;
20928;SDS011;21895;47.072;15.132;2023-04-24T07:06:11;19.37;;;9.27;;
20928;SDS011;21895;47.072;15.132;2023-04-24T07:08:38;16.20;;;9.50;;
20928;SDS011;21895;47.072;15.132;2023-04-24T07:11:05;14.53;;;9.07;;
20928;SDS011;21895;47.072;15.132;2023-04-24T07:13:31;18.47;;;9.47;;
20928;SDS011;21895;47.072;15.132;2023-04-24T07:15:58;20.17;;;9.57;;
20928;SDS011;21895;47.072;15.132;2023-04-24T07:18:24;20.33;;;9.17;;
20928;SDS011;21895;47.072;15.132;2023-04-24T07:20:51;15.67;;;9.00;;
20928;SDS011;21895;47.072;15.132;2023-04-24T07:23:17;15.53;;;8.70;;
20928;SDS011;21895;47.072;15.132;2023-04-24T07:25:45;20.50;;;10.50;;
20928;SDS011;21895;47.072;15.132;2023-04-24T07:28:12;31.00;;;11.47;;
20928;SDS011;21895;47.072;15.132;2023-04-24T07:30:38;22.60;;;10.57;;
20928;SDS011;21895;47.072;15.132;2023-04-24T07:33:05;24.03;;;12.20;;
20928;SDS011;21895;47.072;15.132;2023-04-24T07:35:32;26.40;;;12.60;;
20928;SDS011;21895;47.072;15.132;2023-04-24T07:37:59;22.97;;;12.83;;
20928;SDS011;21895;47.072;15.132;2023-04-24T07:40:26;19.17;;;11.87;;
20928;SDS011;21895;47.072;15.132;2023-04-24T07:42:52;20.07;;;11.57;;
20928;SDS011;21895;47.072;15.132;2023-04-24T07:45:19;22.80;;;11.10;;
20928;SDS011;21895;47.072;15.132;2023-04-24T07:47:45;26.07;;;12.23;;
20928;SDS011;21895;47.072;15.132;2023-04-24T07:50:12;31.97;;;11.13;;
20928;SDS011;21895;47.072;15.132;2023-04-24T07:52:38;15.30;;;10.23;;
20928;SDS011;21895;47.072;15.132;2023-04-24T07:55:05;25.37;;;10.83;;
20928;SDS011;21895;47.072;15.132;2023-04-24T07:57:32;20.47;;;10.13;;
20928;SDS011;21895;47.072;15.132;2023-04-24T07:59:59;18.07;;;10.27;;
20928;SDS011;21895;47.072;15.132;2023-04-24T08:02:25;21.43;;;10.67;;
20928;SDS011;21895;47.072;15.132;2023-04-24T08:04:52;31.60;;;13.17;;
20928;SDS011;21895;47.072;15.132;2023-04-24T08:07:20;22.27;;;12.27;;
20928;SDS011;21895;47.072;15.132;2023-04-24T08:09:46;21.03;;;11.17;;
20928;SDS011;21895;47.072;15.132;2023-04-24T08:12:13;24.50;;;10.57;;
20928;SDS011;21895;47.072;15.132;2023-04-24T08:14:40;21.03;;;10.63;;
20928;SDS011;21895;47.072;15.132;2023-04-24T08:17:06;17.37;;;10.10;;
20928;SDS011;21895;47.072;15.132;2023-04-24T08:19:33;18.43;;;10.77;;
20928;SDS011;21895;47.072;15.132;2023-04-24T08:22:00;22.63;;;10.17;;
20928;SDS011;21895;47.072;15.132;2023-04-24T08:24:26;23.87;;;10.23;;
20928;SDS011;21895;47.072;15.132;2023-04-24T08:26:53;74.57;;;32.33;;
20928;SDS011;21895;47.072;15.132;2023-04-24T08:29:22;54.60;;;24.27;;
20928;SDS011;21895;47.072;15.132;2023-04-24T08:31:48;42.53;;;21.23;;
20928;SDS011;21895;47.072;15.132;2023-04-24T08:34:15;25.90;;;13.53;;
20928;SDS011;21895;47.072;15.132;2023-04-24T08:36:41;22.93;;;10.90;;
20928;SDS011;21895;47.072;15.132;2023-04-24T08:39:13;25.70;;;11.37;;
20928;SDS011;21895;47.072;15.132;2023-04-24T08:41:43;19.40;;;12.50;;
20928;SDS011;21895;47.072;15.132;2023-04-24T08:44:11;19.10;;;12.90;;
20928;SDS011;21895;47.072;15.132;2023-04-24T08:46:40;28.17;;;12.73;;
20928;SDS011;21895;47.072;15.132;2023-04-24T08:49:08;22.73;;;11.53;;
20928;SDS011;21895;47.072;15.132;2023-04-24T08:51:36;19.13;;;10.83;;
20928;SDS011;21895;47.072;15.132;2023-04-24T08:54:03;16.90;;;10.23;;
20928;SDS011;21895;47.072;15.132;2023-04-24T08:56:31;17.23;;;10.77;;
20928;SDS011;21895;47.072;15.132;2023-04-24T08:59:05;17.90;;;10.43;;
20928;SDS011;21895;47.072;15.132;2023-04-24T09:01:32;19.97;;;10.67;;
20928;SDS011;21895;47.072;15.132;2023-04-24T09:04:03;19.13;;;11.27;;
20928;SDS011;21895;47.072;15.132;2023-04-24T09:06:32;26.00;;;10.80;;
20928;SDS011;21895;47.072;15.132;2023-04-24T09:09:00;19.37;;;10.77;;
20928;SDS011;21895;47.072;15.132;2023-04-24T09:11:30;17.67;;;10.53;;
20928;SDS011;21895;47.072;15.132;2023-04-24T09:13:58;19.33;;;10.50;;
20928;SDS011;21895;47.072;15.132;2023-04-24T09:16:26;21.10;;;11.53;;
20928;SDS011;21895;47.072;15.132;2023-04-24T09:18:52;17.23;;;10.93;;
20928;SDS011;21895;47.072;15.132;2023-04-24T09:21:21;19.17;;;11.50;;
20928;SDS011;21895;47.072;15.132;2023-04-24T09:23:58;21.73;;;11.13;;
20928;SDS011;21895;47.072;15.132;2023-04-24T09:26:31;18.03;;;11.27;;
20928;SDS011;21895;47.072;15.132;2023-04-24T09:29:01;20.73;;;11.33;;
20928;SDS011;21895;47.072;15.132;2023-04-24T09:31:29;17.33;;;10.43;;
20928;SDS011;21895;47.072;15.132;2023-04-24T09:33:58;15.90;;;9.73;;
20928;SDS011;21895;47.072;15.132;2023-04-24T09:36:37;19.83;;;9.03;;
20928;SDS011;21895;47.072;15.132;2023-04-24T09:39:07;19.10;;;9.13;;
20928;SDS011;21895;47.072;15.132;2023-04-24T09:41:52;18.33;;;9.37;;
20928;SDS011;21895;47.072;15.132;2023-04-24T09:44:24;26.87;;;9.83;;
20928;SDS011;21895;47.072;15.132;2023-04-24T09:46:57;22.27;;;9.13;;
20928;SDS011;21895;47.072;15.132;2023-04-24T09:49:26;15.33;;;8.50;;
20928;SDS011;21895;47.072;15.132;2023-04-24T09:52:05;20.03;;;8.60;;
20928;SDS011;21895;47.072;15.132;2023-04-24T09:54:36;15.83;;;8.10;;
20928;SDS011;21895;47.072;15.132;2023-04-24T09:57:03;15.70;;;7.63;;
20928;SDS011;21895;47.072;15.132;2023-04-24T09:59:32;14.00;;;8.10;;
20928;SDS011;21895;47.072;15.132;2023-04-24T10:02:02;14.90;;;7.97;;
20928;SDS011;21895;47.072;15.132;2023-04-24T10:04:53;12.13;;;7.07;;
20928;SDS011;21895;47.072;15.132;2023-04-24T10:07:27;10.80;;;6.50;;
20928;SDS011;21895;47.072;15.132;2023-04-24T10:09:54;8.57;;;5.83;;
20928;SDS011;21895;47.072;15.132;2023-04-24T10:12:21;8.20;;;5.70;;
20928;SDS011;21895;47.072;15.132;2023-04-24T10:14:49;11.23;;;5.40;;
20928;SDS011;21895;47.072;15.132;2023-04-24T10:17:16;10.27;;;5.95;;
20928;SDS011;21895;47.072;15.132;2023-04-24T10:19:45;8.13;;;5.50;;
20928;SDS011;21895;47.072;15.132;2023-04-24T10:22:14;9.23;;;5.10;;
20928;SDS011;21895;47.072;15.132;2023-04-24T10:24:43;6.63;;;4.97;;
20928;SDS011;21895;47.072;15.132;2023-04-24T10:27:12;9.83;;;4.87;;
20928;SDS011;21895;47.072;15.132;2023-04-24T10:29:40;5.57;;;3.65;;
20928;SDS011;21895;47.072;15.132;2023-04-24T10:32:09;7.57;;;4.07;;
20928;SDS011;21895;47.072;15.132;2023-04-24T10:34:36;7.15;;;4.55;;
20928;SDS011;21895;47.072;15.132;2023-04-24T10:37:03;6.75;;;4.07;;
20928;SDS011;21895;47.072;15.132;2023-04-24T10:39:30;8.23;;;4.30;;
20928;SDS011;21895;47.072;15.132;2023-04-24T10:41:58;7.07;;;4.43;;
20928;SDS011;21895;47.072;15.132;2023-04-24T10:44:25;5.60;;;4.05;;
20928;SDS011;21895;47.072;15.132;2023-04-24T10:47:01;5.80;;;3.65;;
20928;SDS011;21895;47.072;15.132;2023-04-24T10:49:29;7.15;;;3.60;;
20928;SDS011;21895;47.072;15.132;2023-04-24T10:52:03;9.98;;;3.95;;
20928;SDS011;21895;47.072;15.132;2023-04-24T10:54:36;5.55;;;4.18;;
20928;SDS011;21895;47.072;15.132;2023-04-24T11:00:10;6.37;;;3.58;;
20928;SDS011;21895;47.072;15.132;2023-04-24T11:02:47;10.63;;;3.67;;
20928;SDS011;21895;47.072;15.132;2023-04-24T11:05:16;6.65;;;3.75;;
20928;SDS011;21895;47.072;15.132;2023-04-24T11:08:14;8.05;;;3.52;;
20928;SDS011;21895;47.072;15.132;2023-04-24T11:10:55;5.40;;;3.75;;
20928;SDS011;21895;47.072;15.132;2023-04-24T11:14:00;5.45;;;3.22;;
20928;SDS011;21895;47.072;15.132;2023-04-24T11:16:52;7.80;;;3.35;;
20928;SDS011;21895;47.072;15.132;2023-04-24T11:19:24;4.93;;;3.12;;
20928;SDS011;21895;47.072;15.132;2023-04-24T11:21:55;6.22;;;3.25;;
20928;SDS011;21895;47.072;15.132;2023-04-24T11:27:43;4.22;;;2.87;;
20928;SDS011;21895;47.072;15.132;2023-04-24T11:30:17;3.53;;;2.70;;
20928;SDS011;21895;47.072;15.132;2023-04-24T11:32:48;8.52;;;2.53;;
20928;SDS011;21895;47.072;15.132;2023-04-24T11:35:18;4.05;;;2.60;;
20928;SDS011;21895;47.072;15.132;2023-04-24T11:37:49;3.58;;;2.55;;
20928;SDS011;21895;47.072;15.132;2023-04-24T11:40:48;2.87;;;2.45;;
20928;SDS011;21895;47.072;15.132;2023-04-24T11:43:15;2.80;;;2.40;;
20928;SDS011;21895;47.072;15.132;2023-04-24T11:45:47;2.70;;;2.17;;
20928;SDS011;21895;47.072;15.132;2023-04-24T11:48:18;3.03;;;2.03;;
20928;SDS011;21895;47.072;15.132;2023-04-24T11:50:48;3.97;;;2.08;;
20928;SDS011;21895;47.072;15.132;2023-04-24T11:53:15;3.62;;;2.10;;
20928;SDS011;21895;47.072;15.132;2023-04-24T11:55:46;4.93;;;2.40;;
20928;SDS011;21895;47.072;15.132;2023-04-24T11:58:13;6.47;;;1.70;;
20928;SDS011;21895;47.072;15.132;2023-04-24T12:00:39;8.75;;;1.60;;
20928;SDS011;21895;47.072;15.132;2023-04-24T12:03:10;2.65;;;1.27;;
20928;SDS011;21895;47.072;15.132;2023-04-24T12:05:38;1.70;;;1.25;;
20928;SDS011;21895;47.072;15.132;2023-04-24T12:08:05;2.50;;;1.23;;
20928;SDS011;21895;47.072;15.132;2023-04-24T12:10:32;3.92;;;1.10;;
20928;SDS011;21895;47.072;15.132;2023-04-24T12:13:00;5.28;;;1.30;;
20928;SDS011;21895;47.072;15.132;2023-04-24T12:15:27;3.35;;;1.10;;
20928;SDS011;21895;47.072;15.132;2023-04-24T12:17:54;1.77;;;1.20;;
20928;SDS011;21895;47.072;15.132;2023-04-24T12:20:26;2.65;;;1.17;;
20928;SDS011;21895;47.072;15.132;2023-04-24T12:22:56;1.87;;;1.00;;
20928;SDS011;21895;47.072;15.132;2023-04-24T12:25:25;7.18;;;1.12;;
20928;SDS011;21895;47.072;15.132;2023-04-24T12:28:15;5.80;;;1.17;;
20928;SDS011;21895;47.072;15.132;2023-04-24T12:30:42;1.30;;;1.10;;
20928;SDS011;21895;47.072;15.132;2023-04-24T12:33:19;1.25;;;1.15;;
20928;SDS011;21895;47.072;15.132;2023-04-24T12:35:56;3.37;;;1.10;;
20928;SDS011;21895;47.072;15.132;2023-04-24T12:38:25;3.53;;;1.50;;
20928;SDS011;21895;47.072;15.132;2023-04-24T12:41:04;1.67;;;1.20;;
20928;SDS011;21895;47.072;15.132;2023-04-24T12:43:34;1.30;;;1.20;;
20928;SDS011;21895;47.072;15.132;2023-04-24T12:46:01;1.95;;;1.42;;
20928;SDS011;21895;47.072;15.132;2023-04-24T12:48:28;2.95;;;1.60;;
20928;SDS011;21895;47.072;15.132;2023-04-24T12:50:58;2.42;;;1.50;;
20928;SDS011;21895;47.072;15.132;2023-04-24T12:53:28;1.60;;;1.33;;
20928;SDS011;21895;47.072;15.132;2023-04-24T12:55:56;1.55;;;1.25;;
20928;SDS011;21895;47.072;15.132;2023-04-24T12:58:23;2.25;;;1.58;;
20928;SDS011;21895;47.072;15.132;2023-04-24T13:00:50;4.82;;;1.40;;
20928;SDS011;21895;47.072;15.132;2023-04-24T13:03:17;4.18;;;1.40;;
20928;SDS011;21895;47.072;15.132;2023-04-24T13:05:44;1.20;;;1.10;;
20928;SDS011;21895;47.072;15.132;2023-04-24T13:08:11;1.58;;;1.48;;
20928;SDS011;21895;47.072;15.132;2023-04-24T13:10:38;2.97;;;1.40;;
20928;SDS011;21895;47.072;15.132;2023-04-24T13:13:06;3.85;;;1.55;;
20928;SDS011;21895;47.072;15.132;2023-04-24T13:15:33;2.53;;;1.62;;
20928;SDS011;21895;47.072;15.132;2023-04-24T13:17:59;2.25;;;1.55;;
20928;SDS011;21895;47.072;15.132;2023-04-24T13:20:26;2.95;;;1.70;;
20928;SDS011;21895;47.072;15.132;2023-04-24T13:22:53;2.80;;;1.62;;
20928;SDS011;21895;47.072;15.132;2023-04-24T13:25:19;2.25;;;1.60;;
20928;SDS011;21895;47.072;15.132;2023-04-24T13:27:46;3.17;;;1.85;;
20928;SDS011;21895;47.072;15.132;2023-04-24T13:30:13;2.78;;;1.85;;
20928;SDS011;21895;47.072;15.132;2023-04-24T13:32:39;2.92;;;1.98;;
20928;SDS011;21895;47.072;15.132;2023-04-24T13:35:06;1.85;;;1.70;;
20928;SDS011;21895;47.072;15.132;2023-04-24T13:37:33;2.40;;;1.85;;
20928;SDS011;21895;47.072;15.132;2023-04-24T13:40:00;2.80;;;1.92;;
20928;SDS011;21895;47.072;15.132;2023-04-24T13:42:27;2.25;;;2.05;;
20928;SDS011;21895;47.072;15.132;2023-04-24T13:44:53;3.87;;;2.22;;
20928;SDS011;21895;47.072;15.132;2023-04-24T13:47:19;14.73;;;2.10;;
20928;SDS011;21895;47.072;15.132;2023-04-24T13:49:46;5.97;;;2.10;;
20928;SDS011;21895;47.072;15.132;2023-04-24T13:52:13;6.20;;;2.50;;
20928;SDS011;21895;47.072;15.132;2023-04-24T13:54:39;3.12;;;2.17;;
20928;SDS011;21895;47.072;15.132;2023-04-24T13:57:06;4.47;;;2.53;;
20928;SDS011;21895;47.072;15.132;2023-04-24T13:59:32;5.62;;;2.42;;
20928;SDS011;21895;47.072;15.132;2023-04-24T14:01:59;3.37;;;2.35;;
20928;SDS011;21895;47.072;15.132;2023-04-24T14:04:25;4.15;;;2.50;;
20928;SDS011;21895;47.072;15.132;2023-04-24T14:06:52;10.10;;;2.58;;
20928;SDS011;21895;47.072;15.132;2023-04-24T14:09:19;4.00;;;2.55;;
20928;SDS011;21895;47.072;15.132;2023-04-24T14:11:45;7.32;;;2.33;;
20928;SDS011;21895;47.072;15.132;2023-04-24T14:14:12;3.70;;;2.37;;
20928;SDS011;21895;47.072;15.132;2023-04-24T14:16:38;3.40;;;2.20;;
20928;SDS011;21895;47.072;15.132;2023-04-24T14:19:05;5.40;;;2.05;;
20928;SDS011;21895;47.072;15.132;2023-04-24T14:21:32;11.70;;;2.10;;
20928;SDS011;21895;47.072;15.132;2023-04-24T14:23:59;3.83;;;2.03;;
20928;SDS011;21895;47.072;15.132;2023-04-24T14:26:25;3.60;;;2.08;;
20928;SDS011;21895;47.072;15.132;2023-04-24T14:28:52;13.05;;;1.90;;
20928;SDS011;21895;47.072;15.132;2023-04-24T14:31:27;2.53;;;1.80;;
20928;SDS011;21895;47.072;15.132;2023-04-24T14:33:53;2.58;;;1.90;;
20928;SDS011;21895;47.072;15.132;2023-04-24T14:36:20;3.62;;;1.73;;